sensor_id;sensor_type;location;lat;lon;timestamp;P1;durP1;ratioP1;P2;durP2;ratioP2
55031;SDS011;40928;51.076;7.950;2023-03-24T00:00:17;2.25;;;1.33;;
55031;SDS011;40928;51.076;7.950;2023-03-24T00:02:45;3.72;;;1.35;;
55031;SDS011;40928;51.076;7.950;2023-03-24T00:05:19;2.78;;;1.50;;
55031;SDS011;40928;51.076;7.950;2023-03-24T00:07:46;2.20;;;1.30;;
55031;SDS011;40928;51.076;7.950;2023-03-24T00:10:16;2.47;;;1.75;;
55031;SDS011;40928;51.076;7.950;2023-03-24T00:12:45;4.68;;;1.80;;
55031;SDS011;40928;51.076;7.950;2023-03-24T00:15:12;6.35;;;1.83;;
55031;SDS011;40928;51.076;7.950;2023-03-24T00:17:44;3.05;;;1.45;;
55031;SDS011;40928;51.076;7.950;2023-03-24T00:20:12;4.60;;;1.45;;
55031;SDS011;40928;51.076;7.950;2023-03-24T00:22:40;3.13;;;1.80;;
55031;SDS011;40928;51.076;7.950;2023-03-24T00:25:10;3.65;;;1.83;;
55031;SDS011;40928;51.076;7.950;2023-03-24T00:27:36;2.45;;;1.42;;
55031;SDS011;40928;51.076;7.950;2023-03-24T00:30:06;4.93;;;1.95;;
55031;SDS011;40928;51.076;7.950;2023-03-24T00:32:34;9.35;;;2.10;;
55031;SDS011;40928;51.076;7.950;2023-03-24T00:35:04;4.03;;;2.08;;
55031;SDS011;40928;51.076;7.950;2023-03-24T00:37:32;5.30;;;1.60;;
55031;SDS011;40928;51.076;7.950;2023-03-24T00:40:05;3.00;;;1.80;;
55031;SDS011;40928;51.076;7.950;2023-03-24T00:42:34;3.00;;;1.48;;
55031;SDS011;40928;51.076;7.950;2023-03-24T00:45:02;2.90;;;1.70;;
55031;SDS011;40928;51.076;7.950;2023-03-24T00:47:30;3.45;;;1.48;;
55031;SDS011;40928;51.076;7.950;2023-03-24T00:50:02;3.65;;;1.65;;
55031;SDS011;40928;51.076;7.950;2023-03-24T00:52:30;5.60;;;1.80;;
55031;SDS011;40928;51.076;7.950;2023-03-24T00:54:59;5.50;;;1.80;;
55031;SDS011;40928;51.076;7.950;2023-03-24T00:57:26;3.45;;;1.67;;
55031;SDS011;40928;51.076;7.950;2023-03-24T00:59:54;3.95;;;2.10;;
55031;SDS011;40928;51.076;7.950;2023-03-24T01:02:24;3.83;;;1.98;;
55031;SDS011;40928;51.076;7.950;2023-03-24T01:04:55;2.50;;;1.63;;
55031;SDS011;40928;51.076;7.950;2023-03-24T01:07:23;3.70;;;1.70;;
55031;SDS011;40928;51.076;7.950;2023-03-24T01:09:51;3.58;;;1.45;;
55031;SDS011;40928;51.076;7.950;2023-03-24T01:12:25;9.25;;;2.15;;
55031;SDS011;40928;51.076;7.950;2023-03-24T01:14:54;4.15;;;1.60;;
55031;SDS011;40928;51.076;7.950;2023-03-24T01:17:20;3.83;;;1.50;;
55031;SDS011;40928;51.076;7.950;2023-03-24T01:19:50;2.53;;;1.45;;
55031;SDS011;40928;51.076;7.950;2023-03-24T01:22:17;3.72;;;1.60;;
55031;SDS011;40928;51.076;7.950;2023-03-24T01:24:44;2.45;;;1.38;;
55031;SDS011;40928;51.076;7.950;2023-03-24T01:27:10;6.35;;;1.63;;
55031;SDS011;40928;51.076;7.950;2023-03-24T01:29:36;2.95;;;1.60;;
55031;SDS011;40928;51.076;7.950;2023-03-24T01:32:02;3.17;;;1.80;;
55031;SDS011;40928;51.076;7.950;2023-03-24T01:34:27;3.17;;;1.73;;
55031;SDS011;40928;51.076;7.950;2023-03-24T01:36:53;3.03;;;1.75;;
55031;SDS011;40928;51.076;7.950;2023-03-24T01:39:18;3.53;;;1.73;;
55031;SDS011;40928;51.076;7.950;2023-03-24T01:41:44;2.75;;;1.48;;
55031;SDS011;40928;51.076;7.950;2023-03-24T01:44:24;5.57;;;2.00;;
55031;SDS011;40928;51.076;7.950;2023-03-24T01:46:58;2.75;;;1.45;;
55031;SDS011;40928;51.076;7.950;2023-03-24T01:49:25;4.47;;;1.55;;
55031;SDS011;40928;51.076;7.950;2023-03-24T01:51:59;2.03;;;1.20;;
55031;SDS011;40928;51.076;7.950;2023-03-24T01:54:39;3.13;;;1.73;;
55031;SDS011;40928;51.076;7.950;2023-03-24T01:57:13;4.95;;;1.85;;
55031;SDS011;40928;51.076;7.950;2023-03-24T01:59:49;3.30;;;1.75;;
55031;SDS011;40928;51.076;7.950;2023-03-24T02:02:43;2.13;;;1.30;;
55031;SDS011;40928;51.076;7.950;2023-03-24T02:05:16;3.97;;;1.92;;
55031;SDS011;40928;51.076;7.950;2023-03-24T02:07:46;2.38;;;1.60;;
55031;SDS011;40928;51.076;7.950;2023-03-24T02:10:16;7.05;;;2.10;;
55031;SDS011;40928;51.076;7.950;2023-03-24T02:12:43;2.55;;;1.85;;
55031;SDS011;40928;51.076;7.950;2023-03-24T02:15:12;3.90;;;1.48;;
55031;SDS011;40928;51.076;7.950;2023-03-24T02:29:02;1.80;;;1.30;;
55031;SDS011;40928;51.076;7.950;2023-03-24T02:31:49;5.20;;;1.88;;
55031;SDS011;40928;51.076;7.950;2023-03-24T02:43:41;1.80;;;1.40;;
55031;SDS011;40928;51.076;7.950;2023-03-24T02:54:10;3.47;;;2.30;;
55031;SDS011;40928;51.076;7.950;2023-03-24T02:56:46;3.15;;;1.73;;
55031;SDS011;40928;51.076;7.950;2023-03-24T03:03:22;2.80;;;1.75;;
55031;SDS011;40928;51.076;7.950;2023-03-24T03:08:40;4.22;;;2.33;;
55031;SDS011;40928;51.076;7.950;2023-03-24T03:11:07;3.72;;;2.63;;
55031;SDS011;40928;51.076;7.950;2023-03-24T03:13:38;6.30;;;2.83;;
55031;SDS011;40928;51.076;7.950;2023-03-24T03:16:20;2.63;;;2.00;;
55031;SDS011;40928;51.076;7.950;2023-03-24T03:18:53;5.00;;;2.75;;
55031;SDS011;40928;51.076;7.950;2023-03-24T03:21:26;3.50;;;2.25;;
55031;SDS011;40928;51.076;7.950;2023-03-24T03:23:57;6.70;;;2.25;;
55031;SDS011;40928;51.076;7.950;2023-03-24T03:26:28;3.33;;;2.67;;
55031;SDS011;40928;51.076;7.950;2023-03-24T03:28:58;6.20;;;2.65;;
55031;SDS011;40928;51.076;7.950;2023-03-24T03:31:39;5.45;;;2.75;;
55031;SDS011;40928;51.076;7.950;2023-03-24T03:39:58;4.05;;;2.92;;
55031;SDS011;40928;51.076;7.950;2023-03-24T03:42:28;4.65;;;2.92;;
55031;SDS011;40928;51.076;7.950;2023-03-24T03:44:54;6.40;;;3.08;;
55031;SDS011;40928;51.076;7.950;2023-03-24T03:47:20;6.47;;;3.35;;
55031;SDS011;40928;51.076;7.950;2023-03-24T03:49:48;6.65;;;3.88;;
55031;SDS011;40928;51.076;7.950;2023-03-24T03:52:15;8.75;;;2.90;;
55031;SDS011;40928;51.076;7.950;2023-03-24T03:54:42;5.15;;;3.53;;
55031;SDS011;40928;51.076;7.950;2023-03-24T03:57:09;5.72;;;3.65;;
55031;SDS011;40928;51.076;7.950;2023-03-24T03:59:47;6.95;;;3.53;;
55031;SDS011;40928;51.076;7.950;2023-03-24T04:05:17;6.82;;;3.95;;
55031;SDS011;40928;51.076;7.950;2023-03-24T04:25:02;6.20;;;3.85;;
55031;SDS011;40928;51.076;7.950;2023-03-24T04:27:37;5.68;;;3.95;;
55031;SDS011;40928;51.076;7.950;2023-03-24T04:33:18;8.60;;;4.30;;
55031;SDS011;40928;51.076;7.950;2023-03-24T04:39:10;7.40;;;4.05;;
55031;SDS011;40928;51.076;7.950;2023-03-24T04:41:44;9.10;;;4.75;;
55031;SDS011;40928;51.076;7.950;2023-03-24T04:44:19;10.25;;;4.88;;
55031;SDS011;40928;51.076;7.950;2023-03-24T04:47:07;6.30;;;4.47;;
55031;SDS011;40928;51.076;7.950;2023-03-24T04:49:36;8.63;;;4.43;;
55031;SDS011;40928;51.076;7.950;2023-03-24T04:52:03;7.25;;;4.07;;
55031;SDS011;40928;51.076;7.950;2023-03-24T04:54:32;5.57;;;3.90;;
55031;SDS011;40928;51.076;7.950;2023-03-24T04:57:03;7.32;;;3.97;;
55031;SDS011;40928;51.076;7.950;2023-03-24T05:02:05;6.25;;;4.25;;
55031;SDS011;40928;51.076;7.950;2023-03-24T05:04:42;5.53;;;3.60;;
55031;SDS011;40928;51.076;7.950;2023-03-24T05:07:16;6.80;;;3.70;;
55031;SDS011;40928;51.076;7.950;2023-03-24T05:09:44;5.95;;;3.58;;
55031;SDS011;40928;51.076;7.950;2023-03-24T05:12:10;4.53;;;3.40;;
55031;SDS011;40928;51.076;7.950;2023-03-24T05:14:55;9.15;;;3.17;;
55031;SDS011;40928;51.076;7.950;2023-03-24T05:17:21;8.68;;;3.92;;
55031;SDS011;40928;51.076;7.950;2023-03-24T05:19:49;5.03;;;3.55;;
55031;SDS011;40928;51.076;7.950;2023-03-24T05:22:15;4.88;;;3.55;;
55031;SDS011;40928;51.076;7.950;2023-03-24T05:24:40;4.88;;;3.15;;
55031;SDS011;40928;51.076;7.950;2023-03-24T05:27:06;7.03;;;3.97;;
55031;SDS011;40928;51.076;7.950;2023-03-24T05:29:32;6.55;;;3.22;;
55031;SDS011;40928;51.076;7.950;2023-03-24T05:31:58;6.25;;;3.78;;
55031;SDS011;40928;51.076;7.950;2023-03-24T05:34:23;5.25;;;3.08;;
55031;SDS011;40928;51.076;7.950;2023-03-24T05:36:59;6.57;;;3.40;;
55031;SDS011;40928;51.076;7.950;2023-03-24T05:39:25;5.88;;;3.30;;
55031;SDS011;40928;51.076;7.950;2023-03-24T05:44:42;5.25;;;3.25;;
55031;SDS011;40928;51.076;7.950;2023-03-24T05:47:23;5.50;;;3.03;;
55031;SDS011;40928;51.076;7.950;2023-03-24T05:49:52;4.93;;;3.00;;
55031;SDS011;40928;51.076;7.950;2023-03-24T05:52:17;6.38;;;3.63;;
55031;SDS011;40928;51.076;7.950;2023-03-24T05:54:46;4.43;;;2.53;;
55031;SDS011;40928;51.076;7.950;2023-03-24T05:57:22;4.88;;;1.63;;
55031;SDS011;40928;51.076;7.950;2023-03-24T06:00:16;3.30;;;0.93;;
55031;SDS011;40928;51.076;7.950;2023-03-24T06:02:55;2.50;;;1.23;;
55031;SDS011;40928;51.076;7.950;2023-03-24T06:05:42;7.28;;;1.48;;
55031;SDS011;40928;51.076;7.950;2023-03-24T06:08:10;3.13;;;1.00;;
55031;SDS011;40928;51.076;7.950;2023-03-24T06:10:36;1.95;;;1.13;;
55031;SDS011;40928;51.076;7.950;2023-03-24T06:13:03;4.78;;;0.90;;
55031;SDS011;40928;51.076;7.950;2023-03-24T06:15:30;1.45;;;0.85;;
55031;SDS011;40928;51.076;7.950;2023-03-24T06:18:10;1.75;;;0.70;;
55031;SDS011;40928;51.076;7.950;2023-03-24T06:20:39;1.52;;;0.55;;
55031;SDS011;40928;51.076;7.950;2023-03-24T06:23:09;1.08;;;0.52;;
55031;SDS011;40928;51.076;7.950;2023-03-24T06:26:11;3.63;;;0.80;;
55031;SDS011;40928;51.076;7.950;2023-03-24T06:28:49;3.50;;;0.98;;
55031;SDS011;40928;51.076;7.950;2023-03-24T06:31:28;1.67;;;0.52;;
55031;SDS011;40928;51.076;7.950;2023-03-24T06:33:54;3.40;;;1.00;;
55031;SDS011;40928;51.076;7.950;2023-03-24T06:36:26;1.70;;;0.80;;
55031;SDS011;40928;51.076;7.950;2023-03-24T06:38:56;1.52;;;0.93;;
55031;SDS011;40928;51.076;7.950;2023-03-24T06:41:23;2.58;;;0.90;;
55031;SDS011;40928;51.076;7.950;2023-03-24T06:43:55;4.60;;;1.10;;
55031;SDS011;40928;51.076;7.950;2023-03-24T06:46:21;3.10;;;1.27;;
55031;SDS011;40928;51.076;7.950;2023-03-24T06:48:47;2.53;;;1.10;;
55031;SDS011;40928;51.076;7.950;2023-03-24T06:51:13;2.67;;;1.23;;
55031;SDS011;40928;51.076;7.950;2023-03-24T06:53:39;3.42;;;1.83;;
55031;SDS011;40928;51.076;7.950;2023-03-24T06:56:06;5.70;;;1.70;;
55031;SDS011;40928;51.076;7.950;2023-03-24T06:58:40;2.28;;;1.60;;
55031;SDS011;40928;51.076;7.950;2023-03-24T07:01:17;4.97;;;1.88;;
55031;SDS011;40928;51.076;7.950;2023-03-24T07:04:03;3.97;;;2.08;;
55031;SDS011;40928;51.076;7.950;2023-03-24T07:06:39;3.65;;;2.25;;
55031;SDS011;40928;51.076;7.950;2023-03-24T07:09:12;3.17;;;2.03;;
55031;SDS011;40928;51.076;7.950;2023-03-24T07:11:38;4.95;;;2.20;;
55031;SDS011;40928;51.076;7.950;2023-03-24T07:14:04;3.40;;;2.00;;
55031;SDS011;40928;51.076;7.950;2023-03-24T07:16:31;6.25;;;2.40;;
55031;SDS011;40928;51.076;7.950;2023-03-24T07:19:06;5.95;;;1.90;;
55031;SDS011;40928;51.076;7.950;2023-03-24T07:21:35;7.18;;;2.22;;
55031;SDS011;40928;51.076;7.950;2023-03-24T07:24:00;3.28;;;1.90;;
55031;SDS011;40928;51.076;7.950;2023-03-24T07:26:39;4.65;;;2.70;;
55031;SDS011;40928;51.076;7.950;2023-03-24T07:29:25;5.45;;;2.50;;
55031;SDS011;40928;51.076;7.950;2023-03-24T07:32:13;3.45;;;1.50;;
55031;SDS011;40928;51.076;7.950;2023-03-24T07:34:39;14.90;;;3.13;;
55031;SDS011;40928;51.076;7.950;2023-03-24T07:37:05;5.07;;;1.92;;
55031;SDS011;40928;51.076;7.950;2023-03-24T07:39:31;3.40;;;1.70;;
55031;SDS011;40928;51.076;7.950;2023-03-24T07:41:57;5.65;;;2.00;;
55031;SDS011;40928;51.076;7.950;2023-03-24T07:44:34;8.57;;;2.03;;
55031;SDS011;40928;51.076;7.950;2023-03-24T07:47:00;4.80;;;1.55;;
55031;SDS011;40928;51.076;7.950;2023-03-24T07:49:25;4.22;;;1.70;;
55031;SDS011;40928;51.076;7.950;2023-03-24T07:52:17;5.60;;;1.95;;
55031;SDS011;40928;51.076;7.950;2023-03-24T07:54:47;5.45;;;1.95;;
55031;SDS011;40928;51.076;7.950;2023-03-24T07:57:32;2.75;;;2.00;;
55031;SDS011;40928;51.076;7.950;2023-03-24T08:00:04;4.50;;;1.60;;
55031;SDS011;40928;51.076;7.950;2023-03-24T08:02:50;3.08;;;1.83;;
55031;SDS011;40928;51.076;7.950;2023-03-24T08:05:28;10.45;;;1.58;;
55031;SDS011;40928;51.076;7.950;2023-03-24T08:08:14;4.97;;;1.45;;
55031;SDS011;40928;51.076;7.950;2023-03-24T08:10:40;4.40;;;1.30;;
55031;SDS011;40928;51.076;7.950;2023-03-24T08:13:06;9.35;;;1.50;;
55031;SDS011;40928;51.076;7.950;2023-03-24T08:15:32;5.15;;;1.50;;
55031;SDS011;40928;51.076;7.950;2023-03-24T08:17:58;35.78;;;2.38;;
55031;SDS011;40928;51.076;7.950;2023-03-24T08:20:24;8.68;;;1.77;;
55031;SDS011;40928;51.076;7.950;2023-03-24T08:22:51;7.35;;;1.92;;
55031;SDS011;40928;51.076;7.950;2023-03-24T08:25:18;5.05;;;2.25;;
55031;SDS011;40928;51.076;7.950;2023-03-24T08:27:45;3.60;;;2.30;;
55031;SDS011;40928;51.076;7.950;2023-03-24T08:30:18;3.35;;;1.80;;
55031;SDS011;40928;51.076;7.950;2023-03-24T08:32:46;4.45;;;1.77;;
55031;SDS011;40928;51.076;7.950;2023-03-24T08:35:23;7.80;;;2.38;;
55031;SDS011;40928;51.076;7.950;2023-03-24T08:37:51;6.93;;;1.90;;
55031;SDS011;40928;51.076;7.950;2023-03-24T08:40:18;8.95;;;2.30;;
55031;SDS011;40928;51.076;7.950;2023-03-24T08:42:48;10.48;;;2.50;;
55031;SDS011;40928;51.076;7.950;2023-03-24T08:45:16;10.55;;;3.35;;
55031;SDS011;40928;51.076;7.950;2023-03-24T08:47:45;11.05;;;3.92;;
55031;SDS011;40928;51.076;7.950;2023-03-24T08:50:11;9.07;;;3.67;;
55031;SDS011;40928;51.076;7.950;2023-03-24T08:52:37;14.95;;;4.55;;
55031;SDS011;40928;51.076;7.950;2023-03-24T08:55:03;10.02;;;4.60;;
55031;SDS011;40928;51.076;7.950;2023-03-24T08:57:29;16.35;;;5.80;;
55031;SDS011;40928;51.076;7.950;2023-03-24T08:59:55;11.55;;;5.40;;
55031;SDS011;40928;51.076;7.950;2023-03-24T09:02:21;12.68;;;4.40;;
55031;SDS011;40928;51.076;7.950;2023-03-24T09:04:46;12.65;;;4.82;;
55031;SDS011;40928;51.076;7.950;2023-03-24T09:07:13;7.28;;;3.95;;
55031;SDS011;40928;51.076;7.950;2023-03-24T09:09:40;9.70;;;3.78;;
55031;SDS011;40928;51.076;7.950;2023-03-24T09:12:05;7.13;;;2.60;;
55031;SDS011;40928;51.076;7.950;2023-03-24T09:14:32;6.47;;;2.45;;
55031;SDS011;40928;51.076;7.950;2023-03-24T09:16:57;7.88;;;2.50;;
55031;SDS011;40928;51.076;7.950;2023-03-24T09:19:23;6.90;;;2.53;;
55031;SDS011;40928;51.076;7.950;2023-03-24T09:21:48;13.10;;;2.55;;
55031;SDS011;40928;51.076;7.950;2023-03-24T09:24:14;5.10;;;2.58;;
55031;SDS011;40928;51.076;7.950;2023-03-24T09:26:40;12.30;;;2.20;;
55031;SDS011;40928;51.076;7.950;2023-03-24T09:29:06;8.68;;;1.80;;
55031;SDS011;40928;51.076;7.950;2023-03-24T09:31:31;7.30;;;1.90;;
55031;SDS011;40928;51.076;7.950;2023-03-24T09:34:00;10.43;;;2.72;;
55031;SDS011;40928;51.076;7.950;2023-03-24T09:36:27;9.05;;;2.22;;
55031;SDS011;40928;51.076;7.950;2023-03-24T09:38:53;5.20;;;1.58;;
55031;SDS011;40928;51.076;7.950;2023-03-24T09:41:24;10.10;;;1.95;;
55031;SDS011;40928;51.076;7.950;2023-03-24T09:43:54;6.43;;;1.70;;
55031;SDS011;40928;51.076;7.950;2023-03-24T09:49:02;9.75;;;1.90;;
55031;SDS011;40928;51.076;7.950;2023-03-24T09:51:31;6.68;;;1.60;;
55031;SDS011;40928;51.076;7.950;2023-03-24T09:56:53;4.78;;;1.75;;
55031;SDS011;40928;51.076;7.950;2023-03-24T09:59:20;10.43;;;2.13;;
55031;SDS011;40928;51.076;7.950;2023-03-24T10:01:50;12.82;;;1.70;;
55031;SDS011;40928;51.076;7.950;2023-03-24T10:04:17;10.77;;;1.83;;
55031;SDS011;40928;51.076;7.950;2023-03-24T10:06:45;5.20;;;1.67;;
55031;SDS011;40928;51.076;7.950;2023-03-24T10:09:27;7.72;;;2.30;;
55031;SDS011;40928;51.076;7.950;2023-03-24T10:17:50;5.50;;;1.97;;
55031;SDS011;40928;51.076;7.950;2023-03-24T10:28:32;10.73;;;2.88;;
55031;SDS011;40928;51.076;7.950;2023-03-24T10:31:14;7.32;;;1.63;;
55031;SDS011;40928;51.076;7.950;2023-03-24T10:33:45;6.60;;;1.63;;
55031;SDS011;40928;51.076;7.950;2023-03-24T10:36:12;6.82;;;1.73;;
55031;SDS011;40928;51.076;7.950;2023-03-24T10:38:44;10.15;;;1.52;;
55031;SDS011;40928;51.076;7.950;2023-03-24T10:41:13;9.65;;;1.95;;
55031;SDS011;40928;51.076;7.950;2023-03-24T10:43:43;9.50;;;1.98;;
55031;SDS011;40928;51.076;7.950;2023-03-24T10:46:11;9.27;;;1.40;;
55031;SDS011;40928;51.076;7.950;2023-03-24T10:48:46;2.97;;;1.10;;
55031;SDS011;40928;51.076;7.950;2023-03-24T10:51:19;6.65;;;1.75;;
55031;SDS011;40928;51.076;7.950;2023-03-24T10:53:45;6.00;;;1.13;;
55031;SDS011;40928;51.076;7.950;2023-03-24T10:56:36;13.38;;;2.70;;
55031;SDS011;40928;51.076;7.950;2023-03-24T11:01:47;5.53;;;1.02;;
55031;SDS011;40928;51.076;7.950;2023-03-24T11:04:14;5.22;;;1.02;;
55031;SDS011;40928;51.076;7.950;2023-03-24T11:12:36;6.57;;;1.37;;
55031;SDS011;40928;51.076;7.950;2023-03-24T11:18:00;7.40;;;1.13;;
55031;SDS011;40928;51.076;7.950;2023-03-24T11:21:00;4.88;;;1.02;;
55031;SDS011;40928;51.076;7.950;2023-03-24T11:23:32;8.23;;;1.20;;
55031;SDS011;40928;51.076;7.950;2023-03-24T11:26:14;7.25;;;1.10;;
55031;SDS011;40928;51.076;7.950;2023-03-24T11:28:49;3.53;;;0.80;;
55031;SDS011;40928;51.076;7.950;2023-03-24T11:31:35;3.38;;;1.10;;
55031;SDS011;40928;51.076;7.950;2023-03-24T11:34:12;3.22;;;0.90;;
55031;SDS011;40928;51.076;7.950;2023-03-24T11:36:40;5.85;;;1.10;;
55031;SDS011;40928;51.076;7.950;2023-03-24T11:39:27;6.60;;;0.90;;
55031;SDS011;40928;51.076;7.950;2023-03-24T11:44:51;7.13;;;0.90;;
55031;SDS011;40928;51.076;7.950;2023-03-24T11:47:22;6.60;;;1.42;;
55031;SDS011;40928;51.076;7.950;2023-03-24T11:52:44;10.00;;;1.20;;
55031;SDS011;40928;51.076;7.950;2023-03-24T11:55:34;3.72;;;1.35;;
55031;SDS011;40928;51.076;7.950;2023-03-24T11:58:15;5.53;;;1.35;;
55031;SDS011;40928;51.076;7.950;2023-03-24T12:00:50;5.13;;;1.02;;
55031;SDS011;40928;51.076;7.950;2023-03-24T12:03:28;7.80;;;1.20;;
55031;SDS011;40928;51.076;7.950;2023-03-24T12:06:06;6.18;;;1.10;;
55031;SDS011;40928;51.076;7.950;2023-03-24T12:11:31;7.82;;;1.35;;
55031;SDS011;40928;51.076;7.950;2023-03-24T12:17:20;6.75;;;1.42;;
55031;SDS011;40928;51.076;7.950;2023-03-24T12:28:08;4.55;;;1.13;;
55031;SDS011;40928;51.076;7.950;2023-03-24T12:37:00;6.03;;;1.30;;
55031;SDS011;40928;51.076;7.950;2023-03-24T12:39:33;4.82;;;1.60;;
55031;SDS011;40928;51.076;7.950;2023-03-24T12:42:11;8.88;;;1.33;;
55031;SDS011;40928;51.076;7.950;2023-03-24T12:50:47;4.90;;;1.40;;
55031;SDS011;40928;51.076;7.950;2023-03-24T13:01:52;5.40;;;0.88;;
55031;SDS011;40928;51.076;7.950;2023-03-24T13:04:33;6.32;;;0.80;;
55031;SDS011;40928;51.076;7.950;2023-03-24T13:07:04;5.30;;;0.73;;
55031;SDS011;40928;51.076;7.950;2023-03-24T13:20:47;2.65;;;0.70;;
55031;SDS011;40928;51.076;7.950;2023-03-24T13:23:38;2.65;;;0.60;;
55031;SDS011;40928;51.076;7.950;2023-03-24T13:29:27;3.83;;;0.80;;
55031;SDS011;40928;51.076;7.950;2023-03-24T13:34:59;4.97;;;0.88;;
55031;SDS011;40928;51.076;7.950;2023-03-24T13:37:50;6.20;;;0.73;;
55031;SDS011;40928;51.076;7.950;2023-03-24T13:40:25;2.25;;;0.60;;
55031;SDS011;40928;51.076;7.950;2023-03-24T13:42:55;6.00;;;1.17;;
55031;SDS011;40928;51.076;7.950;2023-03-24T13:45:25;7.07;;;0.98;;
55031;SDS011;40928;51.076;7.950;2023-03-24T13:48:04;4.00;;;0.60;;
55031;SDS011;40928;51.076;7.950;2023-03-24T13:51:02;5.72;;;0.98;;
55031;SDS011;40928;51.076;7.950;2023-03-24T13:53:34;4.63;;;0.70;;
55031;SDS011;40928;51.076;7.950;2023-03-24T13:56:03;4.13;;;0.60;;
55031;SDS011;40928;51.076;7.950;2023-03-24T13:58:45;7.78;;;0.70;;
55031;SDS011;40928;51.076;7.950;2023-03-24T14:01:39;5.80;;;0.85;;
55031;SDS011;40928;51.076;7.950;2023-03-24T14:04:27;7.88;;;0.73;;
55031;SDS011;40928;51.076;7.950;2023-03-24T14:06:54;5.22;;;0.75;;
55031;SDS011;40928;51.076;7.950;2023-03-24T14:09:26;3.78;;;0.50;;
55031;SDS011;40928;51.076;7.950;2023-03-24T14:12:21;4.45;;;0.60;;
55031;SDS011;40928;51.076;7.950;2023-03-24T14:17:42;3.70;;;0.65;;
55031;SDS011;40928;51.076;7.950;2023-03-24T14:20:09;3.60;;;0.70;;
55031;SDS011;40928;51.076;7.950;2023-03-24T14:22:42;7.15;;;0.70;;
55031;SDS011;40928;51.076;7.950;2023-03-24T14:27:44;7.05;;;0.63;;
55031;SDS011;40928;51.076;7.950;2023-03-24T14:30:19;5.63;;;0.65;;
55031;SDS011;40928;51.076;7.950;2023-03-24T14:32:56;4.20;;;0.45;;
55031;SDS011;40928;51.076;7.950;2023-03-24T14:35:42;7.13;;;0.40;;
55031;SDS011;40928;51.076;7.950;2023-03-24T14:40:39;6.80;;;0.70;;
55031;SDS011;40928;51.076;7.950;2023-03-24T14:43:15;3.22;;;0.52;;
55031;SDS011;40928;51.076;7.950;2023-03-24T14:46:07;6.70;;;0.50;;
55031;SDS011;40928;51.076;7.950;2023-03-24T14:54:05;8.45;;;0.70;;
55031;SDS011;40928;51.076;7.950;2023-03-24T14:56:38;8.18;;;0.75;;
55031;SDS011;40928;51.076;7.950;2023-03-24T14:59:15;1.48;;;0.50;;
55031;SDS011;40928;51.076;7.950;2023-03-24T15:01:48;4.80;;;0.50;;
55031;SDS011;40928;51.076;7.950;2023-03-24T15:04:19;3.10;;;0.40;;
55031;SDS011;40928;51.076;7.950;2023-03-24T15:06:45;3.08;;;0.50;;
55031;SDS011;40928;51.076;7.950;2023-03-24T15:09:13;2.67;;;0.40;;
55031;SDS011;40928;51.076;7.950;2023-03-24T15:11:41;2.35;;;0.35;;
55031;SDS011;40928;51.076;7.950;2023-03-24T15:16:51;5.85;;;0.65;;
55031;SDS011;40928;51.076;7.950;2023-03-24T15:19:22;4.93;;;0.50;;
55031;SDS011;40928;51.076;7.950;2023-03-24T15:22:04;2.78;;;0.40;;
55031;SDS011;40928;51.076;7.950;2023-03-24T15:24:35;6.15;;;0.50;;
55031;SDS011;40928;51.076;7.950;2023-03-24T15:29:31;3.88;;;0.60;;
55031;SDS011;40928;51.076;7.950;2023-03-24T15:31:57;1.60;;;0.32;;
55031;SDS011;40928;51.076;7.950;2023-03-24T15:34:29;4.30;;;0.90;;
55031;SDS011;40928;51.076;7.950;2023-03-24T15:37:00;4.72;;;0.60;;
55031;SDS011;40928;51.076;7.950;2023-03-24T15:39:28;3.55;;;0.45;;
55031;SDS011;40928;51.076;7.950;2023-03-24T15:41:58;3.45;;;0.40;;
55031;SDS011;40928;51.076;7.950;2023-03-24T15:44:35;1.92;;;0.43;;
55031;SDS011;40928;51.076;7.950;2023-03-24T15:47:03;2.78;;;0.57;;
55031;SDS011;40928;51.076;7.950;2023-03-24T15:49:35;6.13;;;0.50;;
55031;SDS011;40928;51.076;7.950;2023-03-24T15:52:46;3.35;;;0.60;;
55031;SDS011;40928;51.076;7.950;2023-03-24T15:54:47;3.85;;;0.50;;
55031;SDS011;40928;51.076;7.950;2023-03-24T15:57:20;4.75;;;1.13;;
55031;SDS011;40928;51.076;7.950;2023-03-24T16:02:50;4.60;;;0.75;;
55031;SDS011;40928;51.076;7.950;2023-03-24T16:07:55;3.67;;;0.88;;
55031;SDS011;40928;51.076;7.950;2023-03-24T16:10:30;5.78;;;0.73;;
55031;SDS011;40928;51.076;7.950;2023-03-24T16:13:15;12.65;;;0.80;;
55031;SDS011;40928;51.076;7.950;2023-03-24T16:16:04;2.15;;;0.50;;
55031;SDS011;40928;51.076;7.950;2023-03-24T16:18:38;4.35;;;0.60;;
55031;SDS011;40928;51.076;7.950;2023-03-24T16:21:11;5.05;;;1.20;;
55031;SDS011;40928;51.076;7.950;2023-03-24T16:23:37;5.38;;;0.70;;
55031;SDS011;40928;51.076;7.950;2023-03-24T16:26:04;9.00;;;0.77;;
55031;SDS011;40928;51.076;7.950;2023-03-24T16:28:35;4.72;;;0.50;;
55031;SDS011;40928;51.076;7.950;2023-03-24T16:31:02;4.60;;;0.70;;
55031;SDS011;40928;51.076;7.950;2023-03-24T16:33:30;4.65;;;0.70;;
55031;SDS011;40928;51.076;7.950;2023-03-24T16:35:57;6.25;;;0.82;;
55031;SDS011;40928;51.076;7.950;2023-03-24T16:38:25;8.18;;;0.93;;
55031;SDS011;40928;51.076;7.950;2023-03-24T16:40:52;3.30;;;0.70;;
55031;SDS011;40928;51.076;7.950;2023-03-24T16:43:20;4.60;;;0.60;;
55031;SDS011;40928;51.076;7.950;2023-03-24T16:45:46;7.68;;;0.73;;
55031;SDS011;40928;51.076;7.950;2023-03-24T16:48:13;4.80;;;0.68;;
55031;SDS011;40928;51.076;7.950;2023-03-24T16:50:40;2.15;;;0.50;;
55031;SDS011;40928;51.076;7.950;2023-03-24T16:53:07;4.68;;;1.75;;
55031;SDS011;40928;51.076;7.950;2023-03-24T16:55:37;2.05;;;0.68;;
55031;SDS011;40928;51.076;7.950;2023-03-24T16:58:05;4.45;;;1.02;;
55031;SDS011;40928;51.076;7.950;2023-03-24T17:00:31;3.92;;;0.63;;
55031;SDS011;40928;51.076;7.950;2023-03-24T17:03:01;5.72;;;1.38;;
55031;SDS011;40928;51.076;7.950;2023-03-24T17:05:30;7.32;;;0.70;;
55031;SDS011;40928;51.076;7.950;2023-03-24T17:08:02;5.90;;;0.82;;
55031;SDS011;40928;51.076;7.950;2023-03-24T17:10:28;3.78;;;0.63;;
55031;SDS011;40928;51.076;7.950;2023-03-24T17:12:54;5.88;;;1.20;;
55031;SDS011;40928;51.076;7.950;2023-03-24T17:15:22;8.70;;;1.88;;
55031;SDS011;40928;51.076;7.950;2023-03-24T17:17:52;9.18;;;1.92;;
55031;SDS011;40928;51.076;7.950;2023-03-24T17:20:18;4.53;;;0.68;;
55031;SDS011;40928;51.076;7.950;2023-03-24T17:22:46;2.13;;;0.30;;
55031;SDS011;40928;51.076;7.950;2023-03-24T17:25:14;2.75;;;0.43;;
55031;SDS011;40928;51.076;7.950;2023-03-24T17:27:42;1.05;;;0.15;;
55031;SDS011;40928;51.076;7.950;2023-03-24T17:30:10;1.42;;;0.28;;
55031;SDS011;40928;51.076;7.950;2023-03-24T17:32:40;1.08;;;0.20;;
55031;SDS011;40928;51.076;7.950;2023-03-24T17:35:08;0.68;;;0.30;;
55031;SDS011;40928;51.076;7.950;2023-03-24T17:37:35;1.77;;;0.30;;
55031;SDS011;40928;51.076;7.950;2023-03-24T17:40:01;1.65;;;0.60;;
55031;SDS011;40928;51.076;7.950;2023-03-24T17:42:31;3.20;;;0.40;;
55031;SDS011;40928;51.076;7.950;2023-03-24T17:44:57;0.73;;;0.20;;
55031;SDS011;40928;51.076;7.950;2023-03-24T17:47:22;1.40;;;0.50;;
55031;SDS011;40928;51.076;7.950;2023-03-24T17:49:48;3.47;;;0.73;;
55031;SDS011;40928;51.076;7.950;2023-03-24T17:52:14;3.10;;;0.77;;
55031;SDS011;40928;51.076;7.950;2023-03-24T17:54:39;1.20;;;0.30;;
55031;SDS011;40928;51.076;7.950;2023-03-24T17:57:05;3.40;;;1.85;;
55031;SDS011;40928;51.076;7.950;2023-03-24T17:59:31;5.00;;;0.75;;
55031;SDS011;40928;51.076;7.950;2023-03-24T18:01:57;3.30;;;1.17;;
55031;SDS011;40928;51.076;7.950;2023-03-24T18:04:22;3.58;;;1.00;;
55031;SDS011;40928;51.076;7.950;2023-03-24T18:06:48;3.28;;;0.60;;
55031;SDS011;40928;51.076;7.950;2023-03-24T18:09:13;4.88;;;0.70;;
55031;SDS011;40928;51.076;7.950;2023-03-24T18:11:39;8.90;;;1.77;;
55031;SDS011;40928;51.076;7.950;2023-03-24T18:14:05;4.20;;;1.48;;
55031;SDS011;40928;51.076;7.950;2023-03-24T18:16:33;3.35;;;0.90;;
55031;SDS011;40928;51.076;7.950;2023-03-24T18:18:59;1.23;;;0.60;;